C. Angelo — WCZ5866 — position and weather

sailwx.info

Track history (hours):
 
Tides and Currents Weather Stations Pressure Air Temp Water Temp Dewpoint Dewpoint Depression Visibility Wind Speed Wind Dir Waves Ship Positions

C. Angelo

Owner: G T 110 INC, NEW HAVEN, CT. More information available from US FCC via Universal Licensing System and Coast Guard Vessel Documentation Center.

Last reported at 2017-Oct-20 12:45 UTC. Time now 2017-Oct-23 06:17 UTC.
Position N 41°10' W 072°47'.

MMSI: 366988420.

Date/timePositionNaut miles runAvg speedWind from/ knotsBaromVisibWave heightAir tempDewpointWater temp
2017-Oct-20 12:45N 41°10' W 072°47'2 7.5
2017-Oct-20 12:29N 41°10' W 072°44'4 7.5
2017-Oct-20 11:59N 41°10' W 072°39'4 7.6
2017-Oct-20 11:30N 41°10' W 072°34'4 7.6
2017-Oct-20 11:00N 41°10' W 072°29'4 7.2
2017-Oct-20 10:30N 41°11' W 072°25'3 6.7
2017-Oct-20 10:00N 41°12' W 072°20'3 6.2
2017-Oct-20 09:30N 41°13' W 072°16'3 5.1
2017-Oct-20 09:00N 41°14' W 072°13'2 4.5
2017-Oct-20 08:30N 41°14' W 072°10'61 3.3
2017-Oct-19 13:48N 41°38' W 070°55'0 0.0
2017-Oct-19 13:30N 41°38' W 070°55'0 0.0
2017-Oct-19 13:00N 41°38' W 070°55'0 0.0
2017-Oct-19 12:30N 41°38' W 070°55'0 0.0
2017-Oct-19 12:00N 41°38' W 070°55'0 0.0
2017-Oct-19 11:29N 41°38' W 070°55'0 0.0
2017-Oct-19 11:00N 41°38' W 070°55'0 0.0
2017-Oct-19 10:30N 41°38' W 070°55'1 0.9
2017-Oct-19 09:56N 41°38' W 070°55'4 4.3
2017-Oct-19 09:07N 41°35' W 070°53'1 4.0
2017-Oct-19 08:54N 41°34' W 070°52'60 8.5
2017-Oct-19 01:51N 41°14' W 072°07'2 7.2
2017-Oct-19 01:30N 41°14' W 072°11'3 7.0
2017-Oct-19 01:00N 41°13' W 072°15'4 7.1
2017-Oct-19 00:30N 41°12' W 072°20'3 7.0
2017-Oct-19 00:00N 41°11' W 072°24'4 7.2
2017-Oct-18 23:30N 41°10' W 072°29'4 7.3
2017-Oct-18 23:00N 41°10' W 072°34'4 7.9
2017-Oct-18 22:30N 41°10' W 072°39'4 8.4
2017-Oct-18 22:00N 41°10' W 072°44'4 8.6
2017-Oct-18 21:30N 41°11' W 072°50'  
2017-Oct-12 07:20N 41°11' W 072°45'2 7.5
2017-Oct-12 07:00N 41°10' W 072°41'4 7.5
2017-Oct-12 06:30N 41°10' W 072°37'4 7.7
2017-Oct-12 06:00N 41°10' W 072°31'4 8.5
2017-Oct-12 05:30N 41°11' W 072°26'4 8.7
2017-Oct-12 05:00N 41°12' W 072°20'4 7.9
2017-Oct-12 04:30N 41°13' W 072°15'4 7.3
2017-Oct-12 04:00N 41°14' W 072°11'0 0.0
2017-Oct-11 00:00N 41°14' W 072°10'612.4
2017-Oct-10 23:30N 41°12' W 072°18'611.7
2017-Oct-10 23:00N 41°11' W 072°26'611.2
2017-Oct-10 22:30N 41°10' W 072°33'510.8
2017-Oct-10 22:00N 41°11' W 072°40'  
Track history (hours):
 
Tides and Currents Weather Stations Pressure Air Temp Water Temp Dewpoint Dewpoint Depression Visibility Wind Speed Wind Dir Waves Ship Positions

C. Angelo

Owner: G T 110 INC, NEW HAVEN, CT. More information available from US FCC via Universal Licensing System and Coast Guard Vessel Documentation Center.

Last reported at 2017-Oct-20 12:45 UTC. Time now 2017-Oct-23 06:17 UTC.
Position N 41°10' W 072°47'.

MMSI: 366988420.

Date/timePositionNaut miles runAvg speedWind from/ knotsBaromVisibWave heightAir tempDewpointWater temp
2017-Oct-20 12:45N 41°10' W 072°47'2 7.5
2017-Oct-20 12:29N 41°10' W 072°44'4 7.5
2017-Oct-20 11:59N 41°10' W 072°39'4 7.6
2017-Oct-20 11:30N 41°10' W 072°34'4 7.6
2017-Oct-20 11:00N 41°10' W 072°29'4 7.2
2017-Oct-20 10:30N 41°11' W 072°25'3 6.7
2017-Oct-20 10:00N 41°12' W 072°20'3 6.2
2017-Oct-20 09:30N 41°13' W 072°16'3 5.1
2017-Oct-20 09:00N 41°14' W 072°13'2 4.5
2017-Oct-20 08:30N 41°14' W 072°10'61 3.3
2017-Oct-19 13:48N 41°38' W 070°55'0 0.0
2017-Oct-19 13:30N 41°38' W 070°55'0 0.0
2017-Oct-19 13:00N 41°38' W 070°55'0 0.0
2017-Oct-19 12:30N 41°38' W 070°55'0 0.0
2017-Oct-19 12:00N 41°38' W 070°55'0 0.0
2017-Oct-19 11:29N 41°38' W 070°55'0 0.0
2017-Oct-19 11:00N 41°38' W 070°55'0 0.0
2017-Oct-19 10:30N 41°38' W 070°55'1 0.9
2017-Oct-19 09:56N 41°38' W 070°55'4 4.3
2017-Oct-19 09:07N 41°35' W 070°53'1 4.0
2017-Oct-19 08:54N 41°34' W 070°52'60 8.5
2017-Oct-19 01:51N 41°14' W 072°07'2 7.2
2017-Oct-19 01:30N 41°14' W 072°11'3 7.0
2017-Oct-19 01:00N 41°13' W 072°15'4 7.1
2017-Oct-19 00:30N 41°12' W 072°20'3 7.0
2017-Oct-19 00:00N 41°11' W 072°24'4 7.2
2017-Oct-18 23:30N 41°10' W 072°29'4 7.3
2017-Oct-18 23:00N 41°10' W 072°34'4 7.9
2017-Oct-18 22:30N 41°10' W 072°39'4 8.4
2017-Oct-18 22:00N 41°10' W 072°44'4 8.6
2017-Oct-18 21:30N 41°11' W 072°50'  
2017-Oct-12 07:20N 41°11' W 072°45'2 7.5
2017-Oct-12 07:00N 41°10' W 072°41'4 7.5
2017-Oct-12 06:30N 41°10' W 072°37'4 7.7
2017-Oct-12 06:00N 41°10' W 072°31'4 8.5
2017-Oct-12 05:30N 41°11' W 072°26'4 8.7
2017-Oct-12 05:00N 41°12' W 072°20'4 7.9
2017-Oct-12 04:30N 41°13' W 072°15'4 7.3
2017-Oct-12 04:00N 41°14' W 072°11'0 0.0
2017-Oct-11 00:00N 41°14' W 072°10'612.4
2017-Oct-10 23:30N 41°12' W 072°18'611.7
2017-Oct-10 23:00N 41°11' W 072°26'611.2
2017-Oct-10 22:30N 41°10' W 072°33'510.8
2017-Oct-10 22:00N 41°11' W 072°40'  

Dump ship's entire track history